الصفحة الرئيسية
METAR-TAF:

METAR-TAF

مطار :

أباكان, روسيا

دائرة عرض: 53-45N, خط طول: 091-24E, ارتفاع: 245 متر

مراقبة الطقس الحالي

تاريخ ووقت الإصدار 25 دقيقة قبل الساعة 09:30UTC
ريح 6 عقدة من الشمال/الشمال الغربي
درجة الحرارة 8°درجة مئوية
الرطوبة 76%
ضغط 1020 hPa
الرؤية 10 كم أو أكثر
غيوم مفككة على ارتفاع 2700 قدم, مزنة ركامية.

METAR: UNAA 170930Z 34003MPS 9999 BKN027CB 08/04 Q1020 R02/190060 NOSIG RMK QFE743

زمن: 16:55 (09:55 UTC)

توقعات

تاريخ ووقت الإصدار 2ساعات و 7 دقيقة قبل الساعة 07:48UTC
التوقعات صالحة من17 الساعة 09 UTC إلى 18 الساعة 09 UTC
ريح 6 عقدة من الشمال الغربي
الرؤية: 5000 متر
غيوم متفرقة على ارتفاع 1100 قدم
غيوم مفككة على ارتفاع 1500 قدم, مزنة ركامية.
زخات من الأمطار الخفيفة, غشاء
مؤقت
من 17 الساعة 12 UTC إلى 18 الساعة 04 UTC
الرؤية: 3100 متر
غيوم قليلة على ارتفاع 500 قدم
غيوم مفككة على ارتفاع 1300 قدم, مزنة ركامية.
زخات ثلجية خفيفة, مطر, غشاء

TAF: UNAA 170748Z 1709/1809 31003MPS 5000 -SHRA BR SCT011 BKN015CB TEMPO 1712/1804 3100 -SHSNRA BR FEW005 BKN013CB

أرصاد الطقس والتوقعات من أكثر من 4000 مطار (تقارير الطقس للمطار METAR والتنبؤ بالطقس بالمطارTAF).

المحطات المتاحة هي النقط الصفراء والحمراء على الخريطة.

حرك المؤشر فوق النقطة لمعرفة اسم المحطة.

ثم انقر لمعرفة أرصاد وتوقعات الطقس.

لتغيير الخارطة: اضغط على الأزرار الخضراء مع رمز الصليب الأسود للتكبير. على الزر الأخضر مع شرطة للتصغير، أو على الأسهم الخضراء للخرائط المجاورة.


METAR-TAF: